sensor_id;sensor_type;location;lat;lon;timestamp;P1;durP1;ratioP1;P2;durP2;ratioP2
20657;SDS011;10488;50.846;4.078;2023-05-07T00:01:16;10.80;;;4.75;;
20657;SDS011;10488;50.846;4.078;2023-05-07T00:03:42;12.60;;;5.28;;
20657;SDS011;10488;50.846;4.078;2023-05-07T00:06:08;13.88;;;4.93;;
20657;SDS011;10488;50.846;4.078;2023-05-07T00:08:35;14.32;;;5.30;;
20657;SDS011;10488;50.846;4.078;2023-05-07T00:11:00;10.68;;;4.28;;
20657;SDS011;10488;50.846;4.078;2023-05-07T00:13:26;13.68;;;4.50;;
20657;SDS011;10488;50.846;4.078;2023-05-07T00:15:52;10.18;;;4.53;;
20657;SDS011;10488;50.846;4.078;2023-05-07T00:18:17;11.48;;;4.88;;
20657;SDS011;10488;50.846;4.078;2023-05-07T00:20:46;9.10;;;4.22;;
20657;SDS011;10488;50.846;4.078;2023-05-07T00:23:11;9.75;;;4.15;;
20657;SDS011;10488;50.846;4.078;2023-05-07T00:25:37;9.93;;;4.30;;
20657;SDS011;10488;50.846;4.078;2023-05-07T00:28:03;9.45;;;3.70;;
20657;SDS011;10488;50.846;4.078;2023-05-07T00:30:28;12.45;;;5.28;;
20657;SDS011;10488;50.846;4.078;2023-05-07T00:32:54;14.82;;;4.32;;
20657;SDS011;10488;50.846;4.078;2023-05-07T00:35:20;13.90;;;3.70;;
20657;SDS011;10488;50.846;4.078;2023-05-07T00:37:46;13.55;;;3.92;;
20657;SDS011;10488;50.846;4.078;2023-05-07T00:40:13;10.10;;;3.53;;
20657;SDS011;10488;50.846;4.078;2023-05-07T00:42:39;10.50;;;4.32;;
20657;SDS011;10488;50.846;4.078;2023-05-07T00:45:05;10.63;;;4.28;;
20657;SDS011;10488;50.846;4.078;2023-05-07T00:47:32;10.30;;;4.30;;
20657;SDS011;10488;50.846;4.078;2023-05-07T00:49:58;9.10;;;3.95;;
20657;SDS011;10488;50.846;4.078;2023-05-07T00:52:25;9.40;;;3.85;;
20657;SDS011;10488;50.846;4.078;2023-05-07T00:54:51;10.98;;;4.55;;
20657;SDS011;10488;50.846;4.078;2023-05-07T00:57:18;11.20;;;4.40;;
20657;SDS011;10488;50.846;4.078;2023-05-07T00:59:46;11.75;;;4.90;;
20657;SDS011;10488;50.846;4.078;2023-05-07T01:02:12;9.55;;;4.30;;
20657;SDS011;10488;50.846;4.078;2023-05-07T01:04:37;13.18;;;5.47;;
20657;SDS011;10488;50.846;4.078;2023-05-07T01:07:03;15.32;;;4.55;;
20657;SDS011;10488;50.846;4.078;2023-05-07T01:09:30;9.07;;;4.28;;
20657;SDS011;10488;50.846;4.078;2023-05-07T01:11:56;10.88;;;4.15;;
20657;SDS011;10488;50.846;4.078;2023-05-07T01:14:23;12.32;;;4.53;;
20657;SDS011;10488;50.846;4.078;2023-05-07T01:16:50;13.98;;;4.43;;
20657;SDS011;10488;50.846;4.078;2023-05-07T01:19:17;10.98;;;4.25;;
20657;SDS011;10488;50.846;4.078;2023-05-07T01:21:44;13.10;;;5.65;;
20657;SDS011;10488;50.846;4.078;2023-05-07T01:24:12;7.15;;;3.97;;
20657;SDS011;10488;50.846;4.078;2023-05-07T01:26:38;10.50;;;4.68;;
20657;SDS011;10488;50.846;4.078;2023-05-07T01:29:04;9.05;;;4.38;;
20657;SDS011;10488;50.846;4.078;2023-05-07T01:31:30;12.63;;;4.60;;
20657;SDS011;10488;50.846;4.078;2023-05-07T01:33:58;10.38;;;4.68;;
20657;SDS011;10488;50.846;4.078;2023-05-07T01:36:25;11.07;;;4.78;;
20657;SDS011;10488;50.846;4.078;2023-05-07T01:38:53;11.40;;;4.90;;
20657;SDS011;10488;50.846;4.078;2023-05-07T01:41:19;12.95;;;4.30;;
20657;SDS011;10488;50.846;4.078;2023-05-07T01:43:46;10.10;;;4.50;;
20657;SDS011;10488;50.846;4.078;2023-05-07T01:46:12;7.60;;;5.13;;
20657;SDS011;10488;50.846;4.078;2023-05-07T01:48:39;10.20;;;4.65;;
20657;SDS011;10488;50.846;4.078;2023-05-07T01:51:06;10.88;;;5.18;;
20657;SDS011;10488;50.846;4.078;2023-05-07T01:53:36;13.18;;;4.95;;
20657;SDS011;10488;50.846;4.078;2023-05-07T01:56:03;12.20;;;4.57;;
20657;SDS011;10488;50.846;4.078;2023-05-07T01:58:29;10.45;;;4.57;;
20657;SDS011;10488;50.846;4.078;2023-05-07T02:00:55;9.98;;;3.95;;
20657;SDS011;10488;50.846;4.078;2023-05-07T02:03:20;9.23;;;4.20;;
20657;SDS011;10488;50.846;4.078;2023-05-07T02:05:46;10.25;;;5.30;;
20657;SDS011;10488;50.846;4.078;2023-05-07T02:08:11;10.90;;;5.47;;
20657;SDS011;10488;50.846;4.078;2023-05-07T02:10:37;10.38;;;5.25;;
20657;SDS011;10488;50.846;4.078;2023-05-07T02:13:03;11.63;;;5.30;;
20657;SDS011;10488;50.846;4.078;2023-05-07T02:15:29;11.88;;;4.90;;
20657;SDS011;10488;50.846;4.078;2023-05-07T02:18:04;9.27;;;5.28;;
20657;SDS011;10488;50.846;4.078;2023-05-07T02:20:31;12.48;;;5.22;;
20657;SDS011;10488;50.846;4.078;2023-05-07T02:22:57;10.85;;;5.07;;
20657;SDS011;10488;50.846;4.078;2023-05-07T02:25:23;11.18;;;5.38;;
20657;SDS011;10488;50.846;4.078;2023-05-07T02:27:49;10.02;;;5.30;;
20657;SDS011;10488;50.846;4.078;2023-05-07T02:30:14;7.47;;;4.22;;
20657;SDS011;10488;50.846;4.078;2023-05-07T02:32:40;12.02;;;5.15;;
20657;SDS011;10488;50.846;4.078;2023-05-07T02:35:06;11.35;;;5.07;;
20657;SDS011;10488;50.846;4.078;2023-05-07T02:37:32;9.82;;;5.25;;
20657;SDS011;10488;50.846;4.078;2023-05-07T02:39:58;10.75;;;5.22;;
20657;SDS011;10488;50.846;4.078;2023-05-07T02:42:23;11.00;;;5.63;;
20657;SDS011;10488;50.846;4.078;2023-05-07T02:44:49;10.05;;;5.40;;
20657;SDS011;10488;50.846;4.078;2023-05-07T02:47:15;9.55;;;5.05;;
20657;SDS011;10488;50.846;4.078;2023-05-07T02:49:40;17.48;;;5.28;;
20657;SDS011;10488;50.846;4.078;2023-05-07T02:52:06;10.45;;;4.88;;
20657;SDS011;10488;50.846;4.078;2023-05-07T02:54:32;10.77;;;4.88;;
20657;SDS011;10488;50.846;4.078;2023-05-07T02:56:57;10.13;;;5.07;;
20657;SDS011;10488;50.846;4.078;2023-05-07T02:59:23;10.70;;;5.30;;
20657;SDS011;10488;50.846;4.078;2023-05-07T03:01:51;9.10;;;5.30;;
20657;SDS011;10488;50.846;4.078;2023-05-07T03:04:16;10.38;;;5.38;;
20657;SDS011;10488;50.846;4.078;2023-05-07T03:06:42;8.95;;;4.97;;
20657;SDS011;10488;50.846;4.078;2023-05-07T03:09:08;11.70;;;6.18;;
20657;SDS011;10488;50.846;4.078;2023-05-07T03:11:33;9.52;;;5.15;;
20657;SDS011;10488;50.846;4.078;2023-05-07T03:14:00;11.73;;;5.43;;
20657;SDS011;10488;50.846;4.078;2023-05-07T03:16:26;11.07;;;5.28;;
20657;SDS011;10488;50.846;4.078;2023-05-07T03:18:52;9.80;;;5.13;;
20657;SDS011;10488;50.846;4.078;2023-05-07T03:21:18;7.60;;;5.28;;
20657;SDS011;10488;50.846;4.078;2023-05-07T03:23:44;10.10;;;4.95;;
20657;SDS011;10488;50.846;4.078;2023-05-07T03:26:10;10.85;;;5.53;;
20657;SDS011;10488;50.846;4.078;2023-05-07T03:28:36;11.63;;;5.40;;
20657;SDS011;10488;50.846;4.078;2023-05-07T03:31:02;11.82;;;5.35;;
20657;SDS011;10488;50.846;4.078;2023-05-07T03:33:27;10.43;;;5.38;;
20657;SDS011;10488;50.846;4.078;2023-05-07T03:35:53;10.32;;;5.43;;
20657;SDS011;10488;50.846;4.078;2023-05-07T03:38:19;10.43;;;5.18;;
20657;SDS011;10488;50.846;4.078;2023-05-07T03:40:44;11.77;;;5.28;;
20657;SDS011;10488;50.846;4.078;2023-05-07T03:43:10;12.75;;;5.45;;
20657;SDS011;10488;50.846;4.078;2023-05-07T03:45:36;14.35;;;6.00;;
20657;SDS011;10488;50.846;4.078;2023-05-07T03:48:02;10.82;;;5.53;;
20657;SDS011;10488;50.846;4.078;2023-05-07T03:50:28;9.00;;;4.47;;
20657;SDS011;10488;50.846;4.078;2023-05-07T03:52:53;12.98;;;4.75;;
20657;SDS011;10488;50.846;4.078;2023-05-07T03:55:19;10.57;;;4.75;;
20657;SDS011;10488;50.846;4.078;2023-05-07T03:57:45;15.23;;;5.47;;
20657;SDS011;10488;50.846;4.078;2023-05-07T04:00:11;12.40;;;5.07;;
20657;SDS011;10488;50.846;4.078;2023-05-07T04:02:37;12.73;;;5.72;;
20657;SDS011;10488;50.846;4.078;2023-05-07T04:05:02;13.32;;;5.40;;
20657;SDS011;10488;50.846;4.078;2023-05-07T04:07:28;11.57;;;5.32;;
20657;SDS011;10488;50.846;4.078;2023-05-07T04:09:54;9.50;;;4.22;;
20657;SDS011;10488;50.846;4.078;2023-05-07T04:12:19;10.30;;;5.18;;
20657;SDS011;10488;50.846;4.078;2023-05-07T04:14:45;7.20;;;5.10;;
20657;SDS011;10488;50.846;4.078;2023-05-07T04:17:11;10.20;;;5.07;;
20657;SDS011;10488;50.846;4.078;2023-05-07T04:19:37;8.45;;;5.25;;
20657;SDS011;10488;50.846;4.078;2023-05-07T04:22:02;11.02;;;6.05;;
20657;SDS011;10488;50.846;4.078;2023-05-07T04:24:31;9.68;;;5.15;;
20657;SDS011;10488;50.846;4.078;2023-05-07T04:26:58;10.27;;;5.30;;
20657;SDS011;10488;50.846;4.078;2023-05-07T04:29:23;10.23;;;5.70;;
20657;SDS011;10488;50.846;4.078;2023-05-07T04:31:49;13.88;;;5.30;;
20657;SDS011;10488;50.846;4.078;2023-05-07T04:34:15;17.10;;;5.40;;
20657;SDS011;10488;50.846;4.078;2023-05-07T04:36:41;8.90;;;4.88;;
20657;SDS011;10488;50.846;4.078;2023-05-07T04:39:07;12.77;;;5.57;;
20657;SDS011;10488;50.846;4.078;2023-05-07T04:41:33;11.02;;;5.05;;
20657;SDS011;10488;50.846;4.078;2023-05-07T04:44:01;10.65;;;5.22;;
20657;SDS011;10488;50.846;4.078;2023-05-07T04:46:29;9.45;;;5.45;;
20657;SDS011;10488;50.846;4.078;2023-05-07T04:48:55;13.98;;;5.82;;
20657;SDS011;10488;50.846;4.078;2023-05-07T04:51:20;11.70;;;5.45;;
20657;SDS011;10488;50.846;4.078;2023-05-07T04:53:47;7.50;;;4.75;;
20657;SDS011;10488;50.846;4.078;2023-05-07T04:56:13;12.20;;;5.20;;
20657;SDS011;10488;50.846;4.078;2023-05-07T04:58:39;8.95;;;5.30;;
20657;SDS011;10488;50.846;4.078;2023-05-07T05:01:05;10.18;;;5.10;;
20657;SDS011;10488;50.846;4.078;2023-05-07T05:03:31;11.52;;;5.43;;
20657;SDS011;10488;50.846;4.078;2023-05-07T05:05:56;9.75;;;4.97;;
20657;SDS011;10488;50.846;4.078;2023-05-07T05:08:24;7.68;;;5.00;;
20657;SDS011;10488;50.846;4.078;2023-05-07T05:10:50;10.55;;;5.60;;
20657;SDS011;10488;50.846;4.078;2023-05-07T05:13:16;11.70;;;6.03;;
20657;SDS011;10488;50.846;4.078;2023-05-07T05:15:42;10.90;;;5.75;;
20657;SDS011;10488;50.846;4.078;2023-05-07T05:18:08;16.67;;;6.57;;
20657;SDS011;10488;50.846;4.078;2023-05-07T05:20:33;10.73;;;5.90;;
20657;SDS011;10488;50.846;4.078;2023-05-07T05:22:59;13.35;;;7.47;;
20657;SDS011;10488;50.846;4.078;2023-05-07T05:25:25;17.55;;;8.70;;
20657;SDS011;10488;50.846;4.078;2023-05-07T05:27:50;20.50;;;10.23;;
20657;SDS011;10488;50.846;4.078;2023-05-07T05:30:16;20.70;;;9.85;;
20657;SDS011;10488;50.846;4.078;2023-05-07T05:32:42;13.13;;;8.43;;
20657;SDS011;10488;50.846;4.078;2023-05-07T05:35:08;14.13;;;7.93;;
20657;SDS011;10488;50.846;4.078;2023-05-07T05:37:33;16.42;;;8.98;;
20657;SDS011;10488;50.846;4.078;2023-05-07T05:39:59;15.07;;;7.95;;
20657;SDS011;10488;50.846;4.078;2023-05-07T05:42:25;14.07;;;8.18;;
20657;SDS011;10488;50.846;4.078;2023-05-07T05:44:50;13.45;;;7.28;;
20657;SDS011;10488;50.846;4.078;2023-05-07T05:47:16;14.55;;;8.45;;
20657;SDS011;10488;50.846;4.078;2023-05-07T05:49:42;15.20;;;7.28;;
20657;SDS011;10488;50.846;4.078;2023-05-07T05:52:08;15.38;;;7.60;;
20657;SDS011;10488;50.846;4.078;2023-05-07T05:54:34;16.33;;;9.13;;
20657;SDS011;10488;50.846;4.078;2023-05-07T05:57:00;15.90;;;8.00;;
20657;SDS011;10488;50.846;4.078;2023-05-07T05:59:29;16.63;;;8.63;;
20657;SDS011;10488;50.846;4.078;2023-05-07T06:01:54;15.98;;;8.30;;
20657;SDS011;10488;50.846;4.078;2023-05-07T06:04:20;11.77;;;8.10;;
20657;SDS011;10488;50.846;4.078;2023-05-07T06:06:46;16.25;;;8.40;;
20657;SDS011;10488;50.846;4.078;2023-05-07T06:09:11;14.10;;;7.78;;
20657;SDS011;10488;50.846;4.078;2023-05-07T06:11:37;16.45;;;7.93;;
20657;SDS011;10488;50.846;4.078;2023-05-07T06:14:03;15.95;;;7.80;;
20657;SDS011;10488;50.846;4.078;2023-05-07T06:16:28;17.60;;;8.05;;
20657;SDS011;10488;50.846;4.078;2023-05-07T06:18:54;16.08;;;8.10;;
20657;SDS011;10488;50.846;4.078;2023-05-07T06:21:20;12.88;;;7.80;;
20657;SDS011;10488;50.846;4.078;2023-05-07T06:23:46;20.02;;;8.35;;
20657;SDS011;10488;50.846;4.078;2023-05-07T06:26:11;18.40;;;8.52;;
20657;SDS011;10488;50.846;4.078;2023-05-07T06:28:37;21.33;;;8.63;;
20657;SDS011;10488;50.846;4.078;2023-05-07T06:31:12;12.35;;;8.35;;
20657;SDS011;10488;50.846;4.078;2023-05-07T06:33:43;10.85;;;7.40;;
20657;SDS011;10488;50.846;4.078;2023-05-07T06:36:09;14.65;;;8.90;;
20657;SDS011;10488;50.846;4.078;2023-05-07T06:38:35;17.00;;;8.65;;
20657;SDS011;10488;50.846;4.078;2023-05-07T06:41:01;16.85;;;8.27;;
20657;SDS011;10488;50.846;4.078;2023-05-07T06:43:26;14.18;;;9.07;;
20657;SDS011;10488;50.846;4.078;2023-05-07T06:45:52;16.75;;;8.85;;
20657;SDS011;10488;50.846;4.078;2023-05-07T06:48:18;18.63;;;9.30;;
20657;SDS011;10488;50.846;4.078;2023-05-07T06:50:44;15.13;;;8.70;;
20657;SDS011;10488;50.846;4.078;2023-05-07T06:53:09;16.30;;;8.50;;
20657;SDS011;10488;50.846;4.078;2023-05-07T06:55:35;10.63;;;8.25;;
20657;SDS011;10488;50.846;4.078;2023-05-07T06:58:03;16.77;;;8.60;;
20657;SDS011;10488;50.846;4.078;2023-05-07T07:00:28;18.38;;;8.68;;
20657;SDS011;10488;50.846;4.078;2023-05-07T07:02:54;13.32;;;7.85;;
20657;SDS011;10488;50.846;4.078;2023-05-07T07:05:20;12.40;;;7.25;;
20657;SDS011;10488;50.846;4.078;2023-05-07T07:07:46;15.30;;;7.70;;
20657;SDS011;10488;50.846;4.078;2023-05-07T07:10:20;12.55;;;7.18;;
20657;SDS011;10488;50.846;4.078;2023-05-07T07:12:47;10.02;;;7.05;;
20657;SDS011;10488;50.846;4.078;2023-05-07T07:15:13;13.52;;;6.45;;
20657;SDS011;10488;50.846;4.078;2023-05-07T07:17:40;17.75;;;6.80;;
20657;SDS011;10488;50.846;4.078;2023-05-07T07:20:05;12.23;;;6.30;;
20657;SDS011;10488;50.846;4.078;2023-05-07T07:22:32;10.10;;;5.75;;
20657;SDS011;10488;50.846;4.078;2023-05-07T07:24:57;13.75;;;7.28;;
20657;SDS011;10488;50.846;4.078;2023-05-07T07:27:23;10.77;;;6.40;;
20657;SDS011;10488;50.846;4.078;2023-05-07T07:29:49;12.25;;;5.65;;
20657;SDS011;10488;50.846;4.078;2023-05-07T07:32:14;9.68;;;5.97;;
20657;SDS011;10488;50.846;4.078;2023-05-07T07:34:40;8.02;;;5.35;;
20657;SDS011;10488;50.846;4.078;2023-05-07T07:37:06;7.18;;;4.80;;
20657;SDS011;10488;50.846;4.078;2023-05-07T07:39:32;9.48;;;5.10;;
20657;SDS011;10488;50.846;4.078;2023-05-07T07:41:58;10.40;;;5.78;;
20657;SDS011;10488;50.846;4.078;2023-05-07T07:44:24;12.50;;;5.05;;
20657;SDS011;10488;50.846;4.078;2023-05-07T07:46:50;8.77;;;5.47;;
20657;SDS011;10488;50.846;4.078;2023-05-07T07:49:16;8.60;;;4.65;;
20657;SDS011;10488;50.846;4.078;2023-05-07T07:51:42;8.05;;;4.05;;
20657;SDS011;10488;50.846;4.078;2023-05-07T07:54:08;9.05;;;4.75;;
20657;SDS011;10488;50.846;4.078;2023-05-07T07:56:33;5.47;;;4.00;;
20657;SDS011;10488;50.846;4.078;2023-05-07T07:59:00;9.70;;;4.07;;
20657;SDS011;10488;50.846;4.078;2023-05-07T08:01:26;7.78;;;4.70;;
20657;SDS011;10488;50.846;4.078;2023-05-07T08:03:52;6.00;;;3.95;;
20657;SDS011;10488;50.846;4.078;2023-05-07T08:06:17;10.20;;;3.90;;
20657;SDS011;10488;50.846;4.078;2023-05-07T08:08:43;7.43;;;4.72;;
20657;SDS011;10488;50.846;4.078;2023-05-07T08:11:09;6.72;;;4.32;;
20657;SDS011;10488;50.846;4.078;2023-05-07T08:13:35;7.97;;;3.35;;
20657;SDS011;10488;50.846;4.078;2023-05-07T08:16:01;7.40;;;3.88;;
20657;SDS011;10488;50.846;4.078;2023-05-07T08:18:27;7.80;;;4.20;;
20657;SDS011;10488;50.846;4.078;2023-05-07T08:20:54;9.00;;;5.00;;
20657;SDS011;10488;50.846;4.078;2023-05-07T08:23:20;10.98;;;6.35;;
20657;SDS011;10488;50.846;4.078;2023-05-07T08:25:46;9.05;;;4.22;;
20657;SDS011;10488;50.846;4.078;2023-05-07T08:28:11;4.00;;;2.95;;
20657;SDS011;10488;50.846;4.078;2023-05-07T08:30:37;6.65;;;2.40;;
20657;SDS011;10488;50.846;4.078;2023-05-07T08:33:03;5.97;;;2.33;;
20657;SDS011;10488;50.846;4.078;2023-05-07T08:35:28;4.55;;;2.85;;
20657;SDS011;10488;50.846;4.078;2023-05-07T08:37:54;5.78;;;2.70;;
20657;SDS011;10488;50.846;4.078;2023-05-07T08:40:21;6.28;;;3.00;;
20657;SDS011;10488;50.846;4.078;2023-05-07T08:42:51;8.70;;;2.70;;
20657;SDS011;10488;50.846;4.078;2023-05-07T08:45:18;7.78;;;3.00;;
20657;SDS011;10488;50.846;4.078;2023-05-07T08:47:49;5.88;;;2.53;;
20657;SDS011;10488;50.846;4.078;2023-05-07T08:50:17;7.57;;;2.63;;
20657;SDS011;10488;50.846;4.078;2023-05-07T08:52:45;7.85;;;3.15;;
20657;SDS011;10488;50.846;4.078;2023-05-07T08:55:11;5.65;;;2.78;;
20657;SDS011;10488;50.846;4.078;2023-05-07T08:57:38;10.23;;;3.10;;
20657;SDS011;10488;50.846;4.078;2023-05-07T09:00:04;6.07;;;2.65;;
20657;SDS011;10488;50.846;4.078;2023-05-07T09:02:32;14.50;;;10.15;;
20657;SDS011;10488;50.846;4.078;2023-05-07T09:04:58;16.55;;;11.40;;
20657;SDS011;10488;50.846;4.078;2023-05-07T09:07:24;5.75;;;4.22;;
20657;SDS011;10488;50.846;4.078;2023-05-07T09:09:51;9.10;;;4.40;;
20657;SDS011;10488;50.846;4.078;2023-05-07T09:12:17;10.25;;;4.45;;
20657;SDS011;10488;50.846;4.078;2023-05-07T09:14:43;9.05;;;3.78;;
20657;SDS011;10488;50.846;4.078;2023-05-07T09:17:10;6.20;;;3.65;;
20657;SDS011;10488;50.846;4.078;2023-05-07T09:19:36;8.75;;;3.75;;
20657;SDS011;10488;50.846;4.078;2023-05-07T09:22:02;10.07;;;4.07;;
20657;SDS011;10488;50.846;4.078;2023-05-07T09:24:30;5.93;;;3.70;;
20657;SDS011;10488;50.846;4.078;2023-05-07T09:27:00;5.32;;;3.55;;
20657;SDS011;10488;50.846;4.078;2023-05-07T09:29:27;6.53;;;3.95;;
20657;SDS011;10488;50.846;4.078;2023-05-07T09:31:55;4.50;;;3.42;;
20657;SDS011;10488;50.846;4.078;2023-05-07T09:34:21;4.28;;;3.20;;
20657;SDS011;10488;50.846;4.078;2023-05-07T09:36:47;8.63;;;4.25;;
20657;SDS011;10488;50.846;4.078;2023-05-07T09:39:12;6.70;;;4.13;;
20657;SDS011;10488;50.846;4.078;2023-05-07T09:41:46;5.97;;;4.28;;
20657;SDS011;10488;50.846;4.078;2023-05-07T09:44:13;10.90;;;5.20;;
20657;SDS011;10488;50.846;4.078;2023-05-07T09:46:41;7.78;;;5.00;;
20657;SDS011;10488;50.846;4.078;2023-05-07T09:49:11;8.77;;;4.85;;
20657;SDS011;10488;50.846;4.078;2023-05-07T09:51:47;9.27;;;4.72;;
20657;SDS011;10488;50.846;4.078;2023-05-07T09:54:15;10.25;;;5.05;;
20657;SDS011;10488;50.846;4.078;2023-05-07T09:56:42;7.15;;;4.22;;
20657;SDS011;10488;50.846;4.078;2023-05-07T09:59:09;12.00;;;5.15;;
20657;SDS011;10488;50.846;4.078;2023-05-07T10:01:38;10.25;;;5.07;;
20657;SDS011;10488;50.846;4.078;2023-05-07T10:04:05;6.45;;;4.60;;
20657;SDS011;10488;50.846;4.078;2023-05-07T10:06:33;11.18;;;5.80;;
20657;SDS011;10488;50.846;4.078;2023-05-07T10:08:59;8.45;;;5.10;;
20657;SDS011;10488;50.846;4.078;2023-05-07T10:11:26;7.15;;;5.10;;
20657;SDS011;10488;50.846;4.078;2023-05-07T10:13:52;8.73;;;5.22;;
20657;SDS011;10488;50.846;4.078;2023-05-07T10:16:18;10.15;;;5.60;;
20657;SDS011;10488;50.846;4.078;2023-05-07T10:18:45;8.85;;;5.45;;
20657;SDS011;10488;50.846;4.078;2023-05-07T10:21:19;9.27;;;5.25;;
20657;SDS011;10488;50.846;4.078;2023-05-07T10:23:47;6.85;;;4.63;;
20657;SDS011;10488;50.846;4.078;2023-05-07T10:26:22;8.43;;;4.90;;
20657;SDS011;10488;50.846;4.078;2023-05-07T10:28:52;8.10;;;4.75;;
20657;SDS011;10488;50.846;4.078;2023-05-07T10:33:47;6.03;;;4.93;;
20657;SDS011;10488;50.846;4.078;2023-05-07T10:36:16;6.93;;;5.35;;
20657;SDS011;10488;50.846;4.078;2023-05-07T10:38:43;7.50;;;5.28;;
20657;SDS011;10488;50.846;4.078;2023-05-07T10:41:09;6.82;;;5.15;;
20657;SDS011;10488;50.846;4.078;2023-05-07T10:43:42;9.38;;;4.70;;
20657;SDS011;10488;50.846;4.078;2023-05-07T10:46:19;5.70;;;4.45;;
20657;SDS011;10488;50.846;4.078;2023-05-07T10:51:28;5.53;;;4.10;;
20657;SDS011;10488;50.846;4.078;2023-05-07T10:54:40;7.55;;;3.63;;
20657;SDS011;10488;50.846;4.078;2023-05-07T10:56:44;6.25;;;3.90;;
20657;SDS011;10488;50.846;4.078;2023-05-07T11:01:53;3.28;;;2.83;;
20657;SDS011;10488;50.846;4.078;2023-05-07T11:04:20;3.72;;;2.88;;
20657;SDS011;10488;50.846;4.078;2023-05-07T11:12:17;1.92;;;1.80;;
20657;SDS011;10488;50.846;4.078;2023-05-07T11:15:44;1.98;;;1.73;;
20657;SDS011;10488;50.846;4.078;2023-05-07T11:18:09;4.82;;;1.83;;
20657;SDS011;10488;50.846;4.078;2023-05-07T11:20:52;2.08;;;1.88;;
20657;SDS011;10488;50.846;4.078;2023-05-07T11:28:28;1.08;;;0.90;;
20657;SDS011;10488;50.846;4.078;2023-05-07T11:30:55;1.70;;;1.02;;
20657;SDS011;10488;50.846;4.078;2023-05-07T11:33:22;3.47;;;1.05;;
20657;SDS011;10488;50.846;4.078;2023-05-07T11:35:50;1.48;;;1.20;;
20657;SDS011;10488;50.846;4.078;2023-05-07T11:38:18;1.77;;;1.05;;
20657;SDS011;10488;50.846;4.078;2023-05-07T11:43:16;3.22;;;2.20;;
20657;SDS011;10488;50.846;4.078;2023-05-07T11:45:42;2.15;;;1.95;;
20657;SDS011;10488;50.846;4.078;2023-05-07T11:48:09;4.60;;;2.22;;
20657;SDS011;10488;50.846;4.078;2023-05-07T11:50:35;3.88;;;2.28;;
20657;SDS011;10488;50.846;4.078;2023-05-07T11:53:06;3.58;;;3.00;;
20657;SDS011;10488;50.846;4.078;2023-05-07T11:55:32;4.10;;;2.05;;
20657;SDS011;10488;50.846;4.078;2023-05-07T11:57:58;3.72;;;2.42;;
20657;SDS011;10488;50.846;4.078;2023-05-07T12:00:24;3.63;;;2.20;;
20657;SDS011;10488;50.846;4.078;2023-05-07T12:02:50;3.88;;;2.30;;
20657;SDS011;10488;50.846;4.078;2023-05-07T12:05:15;3.20;;;2.10;;
20657;SDS011;10488;50.846;4.078;2023-05-07T12:07:41;3.60;;;2.42;;
20657;SDS011;10488;50.846;4.078;2023-05-07T12:10:07;3.30;;;2.85;;
20657;SDS011;10488;50.846;4.078;2023-05-07T12:12:40;2.75;;;2.55;;
20657;SDS011;10488;50.846;4.078;2023-05-07T12:15:07;7.15;;;3.17;;
20657;SDS011;10488;50.846;4.078;2023-05-07T12:17:33;3.20;;;2.90;;
20657;SDS011;10488;50.846;4.078;2023-05-07T12:19:59;4.63;;;3.25;;
20657;SDS011;10488;50.846;4.078;2023-05-07T12:22:25;6.57;;;3.35;;
20657;SDS011;10488;50.846;4.078;2023-05-07T12:24:57;6.07;;;3.60;;
20657;SDS011;10488;50.846;4.078;2023-05-07T12:27:23;4.28;;;3.28;;
20657;SDS011;10488;50.846;4.078;2023-05-07T12:29:50;4.45;;;3.53;;
20657;SDS011;10488;50.846;4.078;2023-05-07T12:32:17;3.53;;;3.03;;
20657;SDS011;10488;50.846;4.078;2023-05-07T12:34:45;5.10;;;3.92;;
20657;SDS011;10488;50.846;4.078;2023-05-07T12:37:12;4.45;;;3.90;;
20657;SDS011;10488;50.846;4.078;2023-05-07T12:39:38;5.03;;;4.50;;
20657;SDS011;10488;50.846;4.078;2023-05-07T12:42:09;5.20;;;4.60;;
20657;SDS011;10488;50.846;4.078;2023-05-07T12:44:40;8.07;;;5.35;;
20657;SDS011;10488;50.846;4.078;2023-05-07T12:47:06;4.85;;;4.35;;
20657;SDS011;10488;50.846;4.078;2023-05-07T12:49:34;7.03;;;4.43;;
20657;SDS011;10488;50.846;4.078;2023-05-07T12:52:02;7.15;;;5.65;;
20657;SDS011;10488;50.846;4.078;2023-05-07T12:54:32;7.15;;;6.35;;
20657;SDS011;10488;50.846;4.078;2023-05-07T12:57:04;7.70;;;6.95;;
20657;SDS011;10488;50.846;4.078;2023-05-07T12:59:38;8.30;;;6.47;;
20657;SDS011;10488;50.846;4.078;2023-05-07T13:02:05;7.82;;;6.93;;
20657;SDS011;10488;50.846;4.078;2023-05-07T13:04:32;7.55;;;6.85;;
20657;SDS011;10488;50.846;4.078;2023-05-07T13:06:58;7.13;;;6.30;;
20657;SDS011;10488;50.846;4.078;2023-05-07T13:09:24;8.10;;;6.20;;
20657;SDS011;10488;50.846;4.078;2023-05-07T13:11:50;9.70;;;6.18;;
20657;SDS011;10488;50.846;4.078;2023-05-07T13:14:16;6.35;;;5.75;;
20657;SDS011;10488;50.846;4.078;2023-05-07T13:16:42;8.13;;;5.88;;
20657;SDS011;10488;50.846;4.078;2023-05-07T13:19:07;7.88;;;5.63;;
20657;SDS011;10488;50.846;4.078;2023-05-07T13:21:33;7.47;;;5.95;;
20657;SDS011;10488;50.846;4.078;2023-05-07T13:23:59;4.93;;;4.00;;
20657;SDS011;10488;50.846;4.078;2023-05-07T13:26:25;4.85;;;3.92;;
20657;SDS011;10488;50.846;4.078;2023-05-07T13:28:54;5.63;;;3.47;;
20657;SDS011;10488;50.846;4.078;2023-05-07T13:31:20;6.00;;;3.80;;
20657;SDS011;10488;50.846;4.078;2023-05-07T13:33:46;5.20;;;3.75;;
20657;SDS011;10488;50.846;4.078;2023-05-07T13:36:11;8.27;;;4.10;;
20657;SDS011;10488;50.846;4.078;2023-05-07T13:38:38;5.95;;;4.05;;
20657;SDS011;10488;50.846;4.078;2023-05-07T13:41:04;6.03;;;4.15;;
20657;SDS011;10488;50.846;4.078;2023-05-07T13:43:30;4.35;;;3.58;;
20657;SDS011;10488;50.846;4.078;2023-05-07T13:45:56;5.22;;;4.07;;
20657;SDS011;10488;50.846;4.078;2023-05-07T13:48:22;3.97;;;3.50;;
20657;SDS011;10488;50.846;4.078;2023-05-07T13:50:48;5.47;;;3.78;;
20657;SDS011;10488;50.846;4.078;2023-05-07T13:53:13;6.00;;;4.22;;
20657;SDS011;10488;50.846;4.078;2023-05-07T13:55:43;5.30;;;4.82;;
20657;SDS011;10488;50.846;4.078;2023-05-07T13:58:09;8.85;;;5.82;;
20657;SDS011;10488;50.846;4.078;2023-05-07T14:00:34;7.15;;;5.20;;
20657;SDS011;10488;50.846;4.078;2023-05-07T14:03:00;8.52;;;5.40;;
20657;SDS011;10488;50.846;4.078;2023-05-07T14:05:26;6.00;;;5.18;;
20657;SDS011;10488;50.846;4.078;2023-05-07T14:07:53;9.07;;;5.50;;
20657;SDS011;10488;50.846;4.078;2023-05-07T14:10:21;7.85;;;6.45;;
20657;SDS011;10488;50.846;4.078;2023-05-07T14:12:47;9.77;;;6.72;;
20657;SDS011;10488;50.846;4.078;2023-05-07T14:15:13;11.88;;;6.85;;
20657;SDS011;10488;50.846;4.078;2023-05-07T14:17:39;12.13;;;6.65;;
20657;SDS011;10488;50.846;4.078;2023-05-07T14:20:05;7.75;;;6.63;;
20657;SDS011;10488;50.846;4.078;2023-05-07T14:22:32;7.45;;;5.68;;
20657;SDS011;10488;50.846;4.078;2023-05-07T14:24:57;9.20;;;6.32;;
20657;SDS011;10488;50.846;4.078;2023-05-07T14:27:23;11.02;;;6.57;;
20657;SDS011;10488;50.846;4.078;2023-05-07T14:29:49;8.65;;;7.10;;
20657;SDS011;10488;50.846;4.078;2023-05-07T14:32:19;12.20;;;7.50;;
20657;SDS011;10488;50.846;4.078;2023-05-07T14:34:45;9.57;;;6.45;;
20657;SDS011;10488;50.846;4.078;2023-05-07T14:37:11;9.48;;;6.50;;
20657;SDS011;10488;50.846;4.078;2023-05-07T14:39:37;9.43;;;5.97;;
20657;SDS011;10488;50.846;4.078;2023-05-07T14:42:03;8.27;;;6.45;;
20657;SDS011;10488;50.846;4.078;2023-05-07T14:44:28;11.85;;;6.35;;
20657;SDS011;10488;50.846;4.078;2023-05-07T14:46:54;6.78;;;6.00;;
20657;SDS011;10488;50.846;4.078;2023-05-07T14:49:20;7.72;;;6.05;;
20657;SDS011;10488;50.846;4.078;2023-05-07T14:51:46;8.45;;;6.75;;
20657;SDS011;10488;50.846;4.078;2023-05-07T14:54:12;8.55;;;6.22;;
20657;SDS011;10488;50.846;4.078;2023-05-07T14:56:38;8.38;;;6.45;;
20657;SDS011;10488;50.846;4.078;2023-05-07T14:59:04;7.38;;;6.35;;